sensor_id;sensor_type;location;lat;lon;timestamp;temperature;humidity
35541;DHT22;21650;48.840;9.162;2022-10-22T00:01:14;13.90;99.90
35541;DHT22;21650;48.840;9.162;2022-10-22T00:03:40;13.90;99.90
35541;DHT22;21650;48.840;9.162;2022-10-22T00:06:06;13.90;99.90
35541;DHT22;21650;48.840;9.162;2022-10-22T00:08:32;13.90;99.90
35541;DHT22;21650;48.840;9.162;2022-10-22T00:10:57;13.90;99.90
35541;DHT22;21650;48.840;9.162;2022-10-22T00:13:23;13.80;99.90
35541;DHT22;21650;48.840;9.162;2022-10-22T00:15:49;13.80;99.90
35541;DHT22;21650;48.840;9.162;2022-10-22T00:18:14;13.80;99.90
35541;DHT22;21650;48.840;9.162;2022-10-22T00:20:40;13.70;99.90
35541;DHT22;21650;48.840;9.162;2022-10-22T00:23:06;13.70;99.90
35541;DHT22;21650;48.840;9.162;2022-10-22T00:25:34;13.70;99.90
35541;DHT22;21650;48.840;9.162;2022-10-22T00:28:00;13.70;99.90
35541;DHT22;21650;48.840;9.162;2022-10-22T00:30:27;13.70;99.90
35541;DHT22;21650;48.840;9.162;2022-10-22T00:32:52;13.70;99.90
35541;DHT22;21650;48.840;9.162;2022-10-22T00:35:18;13.70;99.90
35541;DHT22;21650;48.840;9.162;2022-10-22T00:37:43;13.70;99.90
35541;DHT22;21650;48.840;9.162;2022-10-22T00:40:10;13.70;99.90
35541;DHT22;21650;48.840;9.162;2022-10-22T00:42:35;13.70;99.90
35541;DHT22;21650;48.840;9.162;2022-10-22T00:50:10;13.60;99.90
35541;DHT22;21650;48.840;9.162;2022-10-22T00:52:37;13.60;99.90
35541;DHT22;21650;48.840;9.162;2022-10-22T00:55:04;13.70;99.90
35541;DHT22;21650;48.840;9.162;2022-10-22T00:57:30;13.70;99.90
35541;DHT22;21650;48.840;9.162;2022-10-22T00:59:57;13.70;99.90
35541;DHT22;21650;48.840;9.162;2022-10-22T01:02:23;13.70;99.90
35541;DHT22;21650;48.840;9.162;2022-10-22T01:04:48;13.70;99.90
35541;DHT22;21650;48.840;9.162;2022-10-22T01:07:16;13.70;99.90
35541;DHT22;21650;48.840;9.162;2022-10-22T01:10:02;13.70;99.90
35541;DHT22;21650;48.840;9.162;2022-10-22T01:24:52;13.70;99.90
35541;DHT22;21650;48.840;9.162;2022-10-22T01:27:28;13.70;99.90
35541;DHT22;21650;48.840;9.162;2022-10-22T01:30:06;13.60;99.90
35541;DHT22;21650;48.840;9.162;2022-10-22T01:32:40;13.60;99.90
35541;DHT22;21650;48.840;9.162;2022-10-22T01:35:10;13.70;99.90
35541;DHT22;21650;48.840;9.162;2022-10-22T01:37:45;13.60;99.90
35541;DHT22;21650;48.840;9.162;2022-10-22T01:40:14;13.60;99.90
35541;DHT22;21650;48.840;9.162;2022-10-22T01:42:41;13.60;99.90
35541;DHT22;21650;48.840;9.162;2022-10-22T01:45:13;13.60;99.90
35541;DHT22;21650;48.840;9.162;2022-10-22T01:58:51;13.60;99.90
35541;DHT22;21650;48.840;9.162;2022-10-22T02:04:32;13.60;99.90
35541;DHT22;21650;48.840;9.162;2022-10-22T02:07:03;13.60;99.90
35541;DHT22;21650;48.840;9.162;2022-10-22T02:09:32;13.60;99.90
35541;DHT22;21650;48.840;9.162;2022-10-22T02:12:00;13.60;99.90
35541;DHT22;21650;48.840;9.162;2022-10-22T02:14:28;13.60;99.90
35541;DHT22;21650;48.840;9.162;2022-10-22T02:16:56;13.60;99.90
35541;DHT22;21650;48.840;9.162;2022-10-22T02:19:41;13.60;99.90
35541;DHT22;21650;48.840;9.162;2022-10-22T02:22:07;13.60;99.90
35541;DHT22;21650;48.840;9.162;2022-10-22T02:24:33;13.70;99.90
35541;DHT22;21650;48.840;9.162;2022-10-22T02:27:09;13.70;99.90
35541;DHT22;21650;48.840;9.162;2022-10-22T02:29:40;13.70;99.90
35541;DHT22;21650;48.840;9.162;2022-10-22T02:32:09;13.70;99.90
35541;DHT22;21650;48.840;9.162;2022-10-22T02:34:36;13.60;99.90
35541;DHT22;21650;48.840;9.162;2022-10-22T02:37:03;13.70;99.90
35541;DHT22;21650;48.840;9.162;2022-10-22T02:39:30;13.60;99.90
35541;DHT22;21650;48.840;9.162;2022-10-22T02:41:56;13.60;99.90
35541;DHT22;21650;48.840;9.162;2022-10-22T02:44:23;13.50;99.90
35541;DHT22;21650;48.840;9.162;2022-10-22T02:46:49;13.50;99.90
35541;DHT22;21650;48.840;9.162;2022-10-22T02:49:15;13.40;99.90
35541;DHT22;21650;48.840;9.162;2022-10-22T02:51:41;13.40;99.90
35541;DHT22;21650;48.840;9.162;2022-10-22T02:54:07;13.40;99.90
35541;DHT22;21650;48.840;9.162;2022-10-22T02:56:33;13.30;99.90
35541;DHT22;21650;48.840;9.162;2022-10-22T02:58:58;13.40;99.90
35541;DHT22;21650;48.840;9.162;2022-10-22T03:01:24;13.40;99.90
35541;DHT22;21650;48.840;9.162;2022-10-22T03:03:50;13.40;99.90
35541;DHT22;21650;48.840;9.162;2022-10-22T03:06:16;13.30;99.90
35541;DHT22;21650;48.840;9.162;2022-10-22T03:08:41;13.20;99.90
35541;DHT22;21650;48.840;9.162;2022-10-22T03:11:07;13.30;99.90
35541;DHT22;21650;48.840;9.162;2022-10-22T03:13:33;13.30;99.90
35541;DHT22;21650;48.840;9.162;2022-10-22T03:15:58;13.30;99.90
35541;DHT22;21650;48.840;9.162;2022-10-22T03:18:24;13.30;99.90
35541;DHT22;21650;48.840;9.162;2022-10-22T03:20:52;13.20;99.90
35541;DHT22;21650;48.840;9.162;2022-10-22T03:23:23;13.20;99.90
35541;DHT22;21650;48.840;9.162;2022-10-22T03:25:49;13.10;99.90
35541;DHT22;21650;48.840;9.162;2022-10-22T03:28:16;13.10;99.90
35541;DHT22;21650;48.840;9.162;2022-10-22T03:30:42;13.10;99.90
35541;DHT22;21650;48.840;9.162;2022-10-22T03:33:08;13.10;99.90
35541;DHT22;21650;48.840;9.162;2022-10-22T03:35:41;13.10;99.90
35541;DHT22;21650;48.840;9.162;2022-10-22T03:38:08;13.00;99.90
35541;DHT22;21650;48.840;9.162;2022-10-22T03:40:34;13.10;99.90
35541;DHT22;21650;48.840;9.162;2022-10-22T03:43:00;13.10;99.90
35541;DHT22;21650;48.840;9.162;2022-10-22T03:45:25;13.10;99.90
35541;DHT22;21650;48.840;9.162;2022-10-22T03:47:51;13.10;99.90
35541;DHT22;21650;48.840;9.162;2022-10-22T03:50:17;13.20;99.90
35541;DHT22;21650;48.840;9.162;2022-10-22T03:52:42;13.10;99.90
35541;DHT22;21650;48.840;9.162;2022-10-22T03:55:08;13.10;99.90
35541;DHT22;21650;48.840;9.162;2022-10-22T03:57:34;13.20;99.90
35541;DHT22;21650;48.840;9.162;2022-10-22T04:00:00;13.20;99.90
35541;DHT22;21650;48.840;9.162;2022-10-22T04:02:26;13.20;99.90
35541;DHT22;21650;48.840;9.162;2022-10-22T04:04:51;13.30;99.90
35541;DHT22;21650;48.840;9.162;2022-10-22T04:07:17;13.30;99.90
35541;DHT22;21650;48.840;9.162;2022-10-22T04:09:43;13.30;99.90
35541;DHT22;21650;48.840;9.162;2022-10-22T04:12:08;13.30;99.90
35541;DHT22;21650;48.840;9.162;2022-10-22T04:14:34;13.30;99.90
35541;DHT22;21650;48.840;9.162;2022-10-22T04:17:00;13.30;99.90
35541;DHT22;21650;48.840;9.162;2022-10-22T04:19:26;13.40;99.90
35541;DHT22;21650;48.840;9.162;2022-10-22T04:21:51;13.40;99.90
35541;DHT22;21650;48.840;9.162;2022-10-22T04:24:17;13.40;99.90
35541;DHT22;21650;48.840;9.162;2022-10-22T04:26:42;13.30;99.90
35541;DHT22;21650;48.840;9.162;2022-10-22T04:29:08;13.30;99.90
35541;DHT22;21650;48.840;9.162;2022-10-22T04:31:34;13.30;99.90
35541;DHT22;21650;48.840;9.162;2022-10-22T04:33:59;13.20;99.90
35541;DHT22;21650;48.840;9.162;2022-10-22T04:36:26;13.10;99.90
35541;DHT22;21650;48.840;9.162;2022-10-22T04:38:59;13.10;99.90
35541;DHT22;21650;48.840;9.162;2022-10-22T04:41:28;13.10;99.90
35541;DHT22;21650;48.840;9.162;2022-10-22T04:43:55;13.00;99.90
35541;DHT22;21650;48.840;9.162;2022-10-22T04:46:21;13.00;99.90
35541;DHT22;21650;48.840;9.162;2022-10-22T04:48:47;12.90;99.90
35541;DHT22;21650;48.840;9.162;2022-10-22T04:51:15;12.90;99.90
35541;DHT22;21650;48.840;9.162;2022-10-22T04:53:41;12.90;99.90
35541;DHT22;21650;48.840;9.162;2022-10-22T04:58:38;12.80;99.90
35541;DHT22;21650;48.840;9.162;2022-10-22T05:01:11;12.80;99.90
35541;DHT22;21650;48.840;9.162;2022-10-22T05:03:37;12.80;99.90
35541;DHT22;21650;48.840;9.162;2022-10-22T05:06:03;12.80;99.90
35541;DHT22;21650;48.840;9.162;2022-10-22T05:08:28;12.90;99.90
35541;DHT22;21650;48.840;9.162;2022-10-22T05:10:54;12.90;99.90
35541;DHT22;21650;48.840;9.162;2022-10-22T05:13:20;13.00;99.90
35541;DHT22;21650;48.840;9.162;2022-10-22T05:15:45;13.20;99.90
35541;DHT22;21650;48.840;9.162;2022-10-22T05:18:11;13.30;99.90
35541;DHT22;21650;48.840;9.162;2022-10-22T05:20:40;13.30;99.90
35541;DHT22;21650;48.840;9.162;2022-10-22T05:23:06;13.40;99.90
35541;DHT22;21650;48.840;9.162;2022-10-22T05:25:37;13.50;99.90
35541;DHT22;21650;48.840;9.162;2022-10-22T05:28:02;13.50;99.90
35541;DHT22;21650;48.840;9.162;2022-10-22T05:30:28;13.50;99.90
35541;DHT22;21650;48.840;9.162;2022-10-22T05:32:54;13.60;99.90
35541;DHT22;21650;48.840;9.162;2022-10-22T05:35:19;13.60;99.90
35541;DHT22;21650;48.840;9.162;2022-10-22T05:37:45;13.60;99.90
35541;DHT22;21650;48.840;9.162;2022-10-22T05:40:11;13.60;99.90
35541;DHT22;21650;48.840;9.162;2022-10-22T05:42:36;13.60;99.90
35541;DHT22;21650;48.840;9.162;2022-10-22T05:45:02;13.60;99.90
35541;DHT22;21650;48.840;9.162;2022-10-22T05:47:29;13.60;99.90
35541;DHT22;21650;48.840;9.162;2022-10-22T05:49:55;13.60;99.90
35541;DHT22;21650;48.840;9.162;2022-10-22T05:52:22;13.60;99.90
35541;DHT22;21650;48.840;9.162;2022-10-22T05:54:48;13.50;99.90
35541;DHT22;21650;48.840;9.162;2022-10-22T05:57:13;13.60;99.90
35541;DHT22;21650;48.840;9.162;2022-10-22T05:59:39;13.50;99.90
35541;DHT22;21650;48.840;9.162;2022-10-22T06:02:05;13.50;99.90
35541;DHT22;21650;48.840;9.162;2022-10-22T06:04:31;13.60;99.90
35541;DHT22;21650;48.840;9.162;2022-10-22T06:06:56;13.60;99.90
35541;DHT22;21650;48.840;9.162;2022-10-22T06:09:25;13.50;99.90
35541;DHT22;21650;48.840;9.162;2022-10-22T06:11:52;13.50;99.90
35541;DHT22;21650;48.840;9.162;2022-10-22T06:14:18;13.60;99.90
35541;DHT22;21650;48.840;9.162;2022-10-22T06:16:45;13.50;99.90
35541;DHT22;21650;48.840;9.162;2022-10-22T06:19:12;13.50;99.90
35541;DHT22;21650;48.840;9.162;2022-10-22T06:21:38;13.60;99.90
35541;DHT22;21650;48.840;9.162;2022-10-22T06:24:04;13.50;99.90
35541;DHT22;21650;48.840;9.162;2022-10-22T06:26:30;13.50;99.90
35541;DHT22;21650;48.840;9.162;2022-10-22T06:28:56;13.50;99.90
35541;DHT22;21650;48.840;9.162;2022-10-22T06:31:23;13.50;99.90
35541;DHT22;21650;48.840;9.162;2022-10-22T06:33:49;13.60;99.90
35541;DHT22;21650;48.840;9.162;2022-10-22T06:36:17;13.50;99.90
35541;DHT22;21650;48.840;9.162;2022-10-22T06:38:44;13.50;99.90
35541;DHT22;21650;48.840;9.162;2022-10-22T06:41:12;13.50;99.90
35541;DHT22;21650;48.840;9.162;2022-10-22T06:43:39;13.40;99.90
35541;DHT22;21650;48.840;9.162;2022-10-22T06:46:06;13.40;99.90
35541;DHT22;21650;48.840;9.162;2022-10-22T06:48:34;13.50;99.90
35541;DHT22;21650;48.840;9.162;2022-10-22T06:51:03;13.40;99.90
35541;DHT22;21650;48.840;9.162;2022-10-22T06:53:30;13.40;99.90
35541;DHT22;21650;48.840;9.162;2022-10-22T06:55:56;13.40;99.90
35541;DHT22;21650;48.840;9.162;2022-10-22T06:58:22;13.40;99.90
35541;DHT22;21650;48.840;9.162;2022-10-22T07:00:47;13.40;99.90
35541;DHT22;21650;48.840;9.162;2022-10-22T07:03:14;13.40;99.90
35541;DHT22;21650;48.840;9.162;2022-10-22T07:05:40;13.40;99.90
35541;DHT22;21650;48.840;9.162;2022-10-22T07:08:06;13.50;99.90
35541;DHT22;21650;48.840;9.162;2022-10-22T07:10:32;13.50;99.90
35541;DHT22;21650;48.840;9.162;2022-10-22T07:12:57;13.60;99.90
35541;DHT22;21650;48.840;9.162;2022-10-22T07:15:23;13.60;99.90
35541;DHT22;21650;48.840;9.162;2022-10-22T07:17:49;13.60;99.90
35541;DHT22;21650;48.840;9.162;2022-10-22T07:20:16;13.70;99.90
35541;DHT22;21650;48.840;9.162;2022-10-22T07:22:43;13.80;99.90
35541;DHT22;21650;48.840;9.162;2022-10-22T07:25:09;13.80;99.90
35541;DHT22;21650;48.840;9.162;2022-10-22T07:27:35;13.80;99.90
35541;DHT22;21650;48.840;9.162;2022-10-22T07:30:00;13.90;99.90
35541;DHT22;21650;48.840;9.162;2022-10-22T07:32:26;13.90;99.90
35541;DHT22;21650;48.840;9.162;2022-10-22T07:34:52;13.90;99.90
35541;DHT22;21650;48.840;9.162;2022-10-22T07:37:17;13.90;99.90
35541;DHT22;21650;48.840;9.162;2022-10-22T07:39:49;13.90;99.90
35541;DHT22;21650;48.840;9.162;2022-10-22T07:42:14;14.00;99.90
35541;DHT22;21650;48.840;9.162;2022-10-22T07:44:40;14.10;99.90
35541;DHT22;21650;48.840;9.162;2022-10-22T07:47:05;14.10;99.90
35541;DHT22;21650;48.840;9.162;2022-10-22T07:49:31;14.30;99.90
35541;DHT22;21650;48.840;9.162;2022-10-22T07:51:56;14.30;99.90
35541;DHT22;21650;48.840;9.162;2022-10-22T07:54:23;14.40;99.90
35541;DHT22;21650;48.840;9.162;2022-10-22T07:56:48;14.50;99.90
35541;DHT22;21650;48.840;9.162;2022-10-22T07:59:14;14.50;99.90
35541;DHT22;21650;48.840;9.162;2022-10-22T08:01:39;14.60;99.90
35541;DHT22;21650;48.840;9.162;2022-10-22T08:04:05;14.60;99.90
35541;DHT22;21650;48.840;9.162;2022-10-22T08:06:33;14.60;99.90
35541;DHT22;21650;48.840;9.162;2022-10-22T08:08:59;14.70;99.90
35541;DHT22;21650;48.840;9.162;2022-10-22T08:11:24;14.80;99.90
35541;DHT22;21650;48.840;9.162;2022-10-22T08:13:51;14.80;99.90
35541;DHT22;21650;48.840;9.162;2022-10-22T08:16:17;14.90;99.90
35541;DHT22;21650;48.840;9.162;2022-10-22T08:18:42;14.80;99.90
35541;DHT22;21650;48.840;9.162;2022-10-22T08:21:08;14.90;99.90
35541;DHT22;21650;48.840;9.162;2022-10-22T08:23:34;14.90;99.90
35541;DHT22;21650;48.840;9.162;2022-10-22T08:25:59;14.80;99.90
35541;DHT22;21650;48.840;9.162;2022-10-22T08:28:27;14.80;99.90
35541;DHT22;21650;48.840;9.162;2022-10-22T08:30:54;14.90;99.90
35541;DHT22;21650;48.840;9.162;2022-10-22T08:33:20;15.00;99.90
35541;DHT22;21650;48.840;9.162;2022-10-22T08:35:49;14.90;99.90
35541;DHT22;21650;48.840;9.162;2022-10-22T08:38:15;15.00;99.90
35541;DHT22;21650;48.840;9.162;2022-10-22T08:40:41;15.10;99.90
35541;DHT22;21650;48.840;9.162;2022-10-22T08:48:44;15.30;99.90
35541;DHT22;21650;48.840;9.162;2022-10-22T08:51:16;15.30;99.90
35541;DHT22;21650;48.840;9.162;2022-10-22T08:56:26;15.40;99.90
35541;DHT22;21650;48.840;9.162;2022-10-22T08:59:00;15.30;99.90
35541;DHT22;21650;48.840;9.162;2022-10-22T09:01:38;15.30;99.90
35541;DHT22;21650;48.840;9.162;2022-10-22T09:04:10;15.40;99.90
35541;DHT22;21650;48.840;9.162;2022-10-22T09:06:40;15.30;99.90
35541;DHT22;21650;48.840;9.162;2022-10-22T09:09:11;15.40;99.90
35541;DHT22;21650;48.840;9.162;2022-10-22T09:11:50;15.50;99.90
35541;DHT22;21650;48.840;9.162;2022-10-22T09:14:21;15.50;99.90
35541;DHT22;21650;48.840;9.162;2022-10-22T09:19:39;15.70;99.90
35541;DHT22;21650;48.840;9.162;2022-10-22T09:22:31;16.00;99.90
35541;DHT22;21650;48.840;9.162;2022-10-22T09:25:21;16.10;99.90
35541;DHT22;21650;48.840;9.162;2022-10-22T09:27:48;16.20;99.90
35541;DHT22;21650;48.840;9.162;2022-10-22T09:30:16;16.30;99.90
35541;DHT22;21650;48.840;9.162;2022-10-22T09:32:42;16.40;99.90
35541;DHT22;21650;48.840;9.162;2022-10-22T09:35:12;16.50;99.90
35541;DHT22;21650;48.840;9.162;2022-10-22T09:37:51;16.40;99.90
35541;DHT22;21650;48.840;9.162;2022-10-22T09:40:17;16.60;99.90
35541;DHT22;21650;48.840;9.162;2022-10-22T09:42:45;16.60;99.90
35541;DHT22;21650;48.840;9.162;2022-10-22T09:45:20;16.70;99.90
35541;DHT22;21650;48.840;9.162;2022-10-22T09:47:46;16.80;99.90
35541;DHT22;21650;48.840;9.162;2022-10-22T09:53:30;16.90;99.90
35541;DHT22;21650;48.840;9.162;2022-10-22T09:55:58;17.00;99.90
35541;DHT22;21650;48.840;9.162;2022-10-22T09:58:24;17.00;99.90
35541;DHT22;21650;48.840;9.162;2022-10-22T10:00:54;16.90;99.90
35541;DHT22;21650;48.840;9.162;2022-10-22T10:03:23;16.80;99.90
35541;DHT22;21650;48.840;9.162;2022-10-22T10:05:54;17.00;99.90
35541;DHT22;21650;48.840;9.162;2022-10-22T10:08:21;17.00;99.90
35541;DHT22;21650;48.840;9.162;2022-10-22T10:10:53;17.00;99.90
35541;DHT22;21650;48.840;9.162;2022-10-22T10:16:24;17.20;99.90
35541;DHT22;21650;48.840;9.162;2022-10-22T10:35:01;17.80;99.90
35541;DHT22;21650;48.840;9.162;2022-10-22T10:37:36;17.80;99.90
35541;DHT22;21650;48.840;9.162;2022-10-22T10:45:44;18.00;99.90
35541;DHT22;21650;48.840;9.162;2022-10-22T10:57:05;18.00;99.90
35541;DHT22;21650;48.840;9.162;2022-10-22T11:00:05;18.10;99.90
35541;DHT22;21650;48.840;9.162;2022-10-22T11:05:29;18.20;99.90
35541;DHT22;21650;48.840;9.162;2022-10-22T11:08:08;18.20;99.90
35541;DHT22;21650;48.840;9.162;2022-10-22T11:10:39;18.30;99.90
35541;DHT22;21650;48.840;9.162;2022-10-22T11:13:40;18.30;99.90
35541;DHT22;21650;48.840;9.162;2022-10-22T11:19:06;18.50;99.90
35541;DHT22;21650;48.840;9.162;2022-10-22T11:21:49;18.40;99.90
35541;DHT22;21650;48.840;9.162;2022-10-22T11:24:38;18.30;99.90
35541;DHT22;21650;48.840;9.162;2022-10-22T11:29:51;18.00;99.90
35541;DHT22;21650;48.840;9.162;2022-10-22T11:32:19;18.10;99.90
35541;DHT22;21650;48.840;9.162;2022-10-22T11:34:52;18.20;99.90
35541;DHT22;21650;48.840;9.162;2022-10-22T11:37:20;18.40;99.90
35541;DHT22;21650;48.840;9.162;2022-10-22T11:39:50;18.50;99.90
35541;DHT22;21650;48.840;9.162;2022-10-22T11:42:22;18.40;99.90
35541;DHT22;21650;48.840;9.162;2022-10-22T11:47:26;18.50;99.90
35541;DHT22;21650;48.840;9.162;2022-10-22T11:49:58;18.40;99.90
35541;DHT22;21650;48.840;9.162;2022-10-22T11:52:39;18.20;99.90
35541;DHT22;21650;48.840;9.162;2022-10-22T11:57:56;18.30;99.90
35541;DHT22;21650;48.840;9.162;2022-10-22T12:00:56;18.20;99.90
35541;DHT22;21650;48.840;9.162;2022-10-22T12:11:44;18.10;99.90
35541;DHT22;21650;48.840;9.162;2022-10-22T12:14:31;18.30;99.90
35541;DHT22;21650;48.840;9.162;2022-10-22T12:19:41;18.50;99.90
35541;DHT22;21650;48.840;9.162;2022-10-22T12:22:14;18.60;99.90
35541;DHT22;21650;48.840;9.162;2022-10-22T12:24:45;18.60;99.90
35541;DHT22;21650;48.840;9.162;2022-10-22T12:27:41;18.40;99.90
35541;DHT22;21650;48.840;9.162;2022-10-22T12:30:31;18.20;99.90
35541;DHT22;21650;48.840;9.162;2022-10-22T12:33:00;18.30;99.90
35541;DHT22;21650;48.840;9.162;2022-10-22T12:35:28;18.30;99.90
35541;DHT22;21650;48.840;9.162;2022-10-22T12:37:57;18.30;99.90
35541;DHT22;21650;48.840;9.162;2022-10-22T12:40:27;18.40;99.90
35541;DHT22;21650;48.840;9.162;2022-10-22T12:42:56;18.50;99.90
35541;DHT22;21650;48.840;9.162;2022-10-22T12:45:25;18.60;99.90
35541;DHT22;21650;48.840;9.162;2022-10-22T12:48:01;18.60;99.90
35541;DHT22;21650;48.840;9.162;2022-10-22T12:50:32;18.50;99.90
35541;DHT22;21650;48.840;9.162;2022-10-22T12:52:58;18.50;99.90
35541;DHT22;21650;48.840;9.162;2022-10-22T12:55:25;18.60;99.90
35541;DHT22;21650;48.840;9.162;2022-10-22T12:57:51;18.50;99.90
35541;DHT22;21650;48.840;9.162;2022-10-22T13:00:26;18.60;99.90
35541;DHT22;21650;48.840;9.162;2022-10-22T13:02:52;18.70;99.90
35541;DHT22;21650;48.840;9.162;2022-10-22T13:07:49;18.90;99.90
35541;DHT22;21650;48.840;9.162;2022-10-22T13:10:36;18.80;99.90
35541;DHT22;21650;48.840;9.162;2022-10-22T13:13:02;19.10;99.90
35541;DHT22;21650;48.840;9.162;2022-10-22T13:18:18;19.20;99.90
35541;DHT22;21650;48.840;9.162;2022-10-22T13:20:57;19.10;99.90
35541;DHT22;21650;48.840;9.162;2022-10-22T13:23:24;19.00;99.90
35541;DHT22;21650;48.840;9.162;2022-10-22T13:28:26;18.80;99.90
35541;DHT22;21650;48.840;9.162;2022-10-22T13:31:01;18.90;99.90
35541;DHT22;21650;48.840;9.162;2022-10-22T13:33:36;19.00;99.90
35541;DHT22;21650;48.840;9.162;2022-10-22T13:36:02;19.10;99.90
35541;DHT22;21650;48.840;9.162;2022-10-22T13:38:28;19.10;99.90
35541;DHT22;21650;48.840;9.162;2022-10-22T13:40:55;19.10;99.90
35541;DHT22;21650;48.840;9.162;2022-10-22T13:43:21;19.10;99.90
35541;DHT22;21650;48.840;9.162;2022-10-22T13:45:49;19.00;99.90
35541;DHT22;21650;48.840;9.162;2022-10-22T13:48:18;18.90;99.90
35541;DHT22;21650;48.840;9.162;2022-10-22T13:50:47;19.10;99.90
35541;DHT22;21650;48.840;9.162;2022-10-22T13:53:19;18.90;99.90
35541;DHT22;21650;48.840;9.162;2022-10-22T13:55:45;18.70;99.90
35541;DHT22;21650;48.840;9.162;2022-10-22T13:58:14;18.80;99.90
35541;DHT22;21650;48.840;9.162;2022-10-22T14:01:02;18.90;99.90
35541;DHT22;21650;48.840;9.162;2022-10-22T14:03:33;19.00;99.90
35541;DHT22;21650;48.840;9.162;2022-10-22T14:06:00;19.00;99.90
35541;DHT22;21650;48.840;9.162;2022-10-22T14:08:26;19.00;99.90
35541;DHT22;21650;48.840;9.162;2022-10-22T14:10:52;18.90;99.90
35541;DHT22;21650;48.840;9.162;2022-10-22T14:13:19;19.00;99.90
35541;DHT22;21650;48.840;9.162;2022-10-22T14:15:46;19.00;99.90
35541;DHT22;21650;48.840;9.162;2022-10-22T14:18:17;18.90;99.90
35541;DHT22;21650;48.840;9.162;2022-10-22T14:20:48;19.00;99.90
35541;DHT22;21650;48.840;9.162;2022-10-22T14:23:18;18.90;99.90
35541;DHT22;21650;48.840;9.162;2022-10-22T14:25:44;18.80;99.90
35541;DHT22;21650;48.840;9.162;2022-10-22T14:28:10;18.90;99.90
35541;DHT22;21650;48.840;9.162;2022-10-22T14:30:37;18.90;99.90
35541;DHT22;21650;48.840;9.162;2022-10-22T14:33:16;18.70;99.90
35541;DHT22;21650;48.840;9.162;2022-10-22T14:35:42;18.70;99.90
35541;DHT22;21650;48.840;9.162;2022-10-22T14:38:08;18.80;99.90
35541;DHT22;21650;48.840;9.162;2022-10-22T14:40:33;18.80;99.90
35541;DHT22;21650;48.840;9.162;2022-10-22T14:42:59;19.00;99.90
35541;DHT22;21650;48.840;9.162;2022-10-22T14:45:26;18.90;99.90
35541;DHT22;21650;48.840;9.162;2022-10-22T14:47:52;18.90;99.90
35541;DHT22;21650;48.840;9.162;2022-10-22T14:50:22;18.90;99.90
35541;DHT22;21650;48.840;9.162;2022-10-22T14:52:49;19.00;99.90
35541;DHT22;21650;48.840;9.162;2022-10-22T14:55:16;18.90;99.90
35541;DHT22;21650;48.840;9.162;2022-10-22T14:57:43;18.80;99.90
35541;DHT22;21650;48.840;9.162;2022-10-22T15:00:16;18.70;99.90
35541;DHT22;21650;48.840;9.162;2022-10-22T15:02:42;18.70;99.90
35541;DHT22;21650;48.840;9.162;2022-10-22T15:05:08;18.60;99.90
35541;DHT22;21650;48.840;9.162;2022-10-22T15:07:34;18.50;99.90
35541;DHT22;21650;48.840;9.162;2022-10-22T15:10:00;18.50;99.90
35541;DHT22;21650;48.840;9.162;2022-10-22T15:12:26;18.50;99.90
35541;DHT22;21650;48.840;9.162;2022-10-22T15:14:51;18.50;99.90
35541;DHT22;21650;48.840;9.162;2022-10-22T15:17:17;18.40;99.90
35541;DHT22;21650;48.840;9.162;2022-10-22T15:19:43;18.40;99.90
35541;DHT22;21650;48.840;9.162;2022-10-22T15:22:12;18.40;99.90
35541;DHT22;21650;48.840;9.162;2022-10-22T15:24:38;18.40;99.90
35541;DHT22;21650;48.840;9.162;2022-10-22T15:27:04;18.20;99.90
35541;DHT22;21650;48.840;9.162;2022-10-22T15:29:30;18.10;99.90
35541;DHT22;21650;48.840;9.162;2022-10-22T15:31:57;18.10;99.90
35541;DHT22;21650;48.840;9.162;2022-10-22T15:34:26;18.00;99.90
35541;DHT22;21650;48.840;9.162;2022-10-22T15:36:54;17.90;99.90
35541;DHT22;21650;48.840;9.162;2022-10-22T15:40:04;17.90;99.90
35541;DHT22;21650;48.840;9.162;2022-10-22T15:42:42;17.80;99.90
35541;DHT22;21650;48.840;9.162;2022-10-22T15:45:31;17.80;99.90
35541;DHT22;21650;48.840;9.162;2022-10-22T15:48:08;17.70;99.90
35541;DHT22;21650;48.840;9.162;2022-10-22T15:50:49;17.70;99.90
35541;DHT22;21650;48.840;9.162;2022-10-22T15:53:15;17.60;99.90
35541;DHT22;21650;48.840;9.162;2022-10-22T15:55:47;17.50;99.90
35541;DHT22;21650;48.840;9.162;2022-10-22T16:01:37;17.30;99.90
35541;DHT22;21650;48.840;9.162;2022-10-22T16:07:33;17.00;99.90
35541;DHT22;21650;48.840;9.162;2022-10-22T16:10:05;17.00;99.90
35541;DHT22;21650;48.840;9.162;2022-10-22T16:12:45;17.00;99.90
35541;DHT22;21650;48.840;9.162;2022-10-22T16:15:11;16.90;99.90
35541;DHT22;21650;48.840;9.162;2022-10-22T16:18:25;16.70;99.90
35541;DHT22;21650;48.840;9.162;2022-10-22T16:25:05;16.40;99.90
35541;DHT22;21650;48.840;9.162;2022-10-22T16:27:35;16.20;99.90
35541;DHT22;21650;48.840;9.162;2022-10-22T16:30:04;16.10;99.90
35541;DHT22;21650;48.840;9.162;2022-10-22T16:32:41;16.00;99.90
35541;DHT22;21650;48.840;9.162;2022-10-22T16:35:12;15.90;99.90
35541;DHT22;21650;48.840;9.162;2022-10-22T16:37:39;15.80;99.90
35541;DHT22;21650;48.840;9.162;2022-10-22T16:40:05;15.70;99.90
35541;DHT22;21650;48.840;9.162;2022-10-22T16:42:31;15.60;99.90
35541;DHT22;21650;48.840;9.162;2022-10-22T16:44:57;15.50;99.90
35541;DHT22;21650;48.840;9.162;2022-10-22T16:47:23;15.40;99.90
35541;DHT22;21650;48.840;9.162;2022-10-22T16:49:55;15.40;99.90
35541;DHT22;21650;48.840;9.162;2022-10-22T16:52:21;15.30;99.90
35541;DHT22;21650;48.840;9.162;2022-10-22T16:54:47;15.30;99.90
35541;DHT22;21650;48.840;9.162;2022-10-22T16:57:13;15.20;99.90
35541;DHT22;21650;48.840;9.162;2022-10-22T16:59:39;15.20;99.90
35541;DHT22;21650;48.840;9.162;2022-10-22T17:02:05;15.10;99.90
35541;DHT22;21650;48.840;9.162;2022-10-22T17:04:33;15.10;99.90
35541;DHT22;21650;48.840;9.162;2022-10-22T17:06:58;15.10;99.90
35541;DHT22;21650;48.840;9.162;2022-10-22T17:09:26;15.00;99.90
35541;DHT22;21650;48.840;9.162;2022-10-22T17:12:02;15.00;99.90
35541;DHT22;21650;48.840;9.162;2022-10-22T17:14:28;14.90;99.90
35541;DHT22;21650;48.840;9.162;2022-10-22T17:16:54;14.80;99.90
35541;DHT22;21650;48.840;9.162;2022-10-22T17:19:21;14.80;99.90
35541;DHT22;21650;48.840;9.162;2022-10-22T17:21:48;14.70;99.90
35541;DHT22;21650;48.840;9.162;2022-10-22T17:24:16;14.60;99.90
35541;DHT22;21650;48.840;9.162;2022-10-22T17:26:42;14.50;99.90
35541;DHT22;21650;48.840;9.162;2022-10-22T17:29:09;14.50;99.90
35541;DHT22;21650;48.840;9.162;2022-10-22T17:31:36;14.40;99.90
35541;DHT22;21650;48.840;9.162;2022-10-22T17:34:04;14.40;99.90
35541;DHT22;21650;48.840;9.162;2022-10-22T17:36:31;14.40;99.90
35541;DHT22;21650;48.840;9.162;2022-10-22T17:38:59;14.30;99.90
35541;DHT22;21650;48.840;9.162;2022-10-22T17:41:28;14.30;99.90
35541;DHT22;21650;48.840;9.162;2022-10-22T17:43:55;14.20;99.90
35541;DHT22;21650;48.840;9.162;2022-10-22T17:46:23;14.20;99.90